Terminal Aerodrome Forecast
Issued by NWS

Home | Current Version | Previous Version | Text Only | Print | Product List | Glossary On
Versions: 1 2 3 4 5 6 7 8 9 10 11 12 13
000
FTUS45 KFGZ 222328
TAFPGA
TAF
KPGA 222328Z 2300/2324 21011KT 6SM -SHRA BKN050
      TEMPO 2302/2306 -TSRA BKN025CB
     FM231000 25012KT P6SM -SHRA BKN060=

USA.gov is the U.S. government's official web portal to all federal, state and local government web resources and services.